sensor_id;sensor_type;location;lat;lon;timestamp;P1;durP1;ratioP1;P2;durP2;ratioP2
59294;SDS011;45067;44.654;20.200;2022-08-01T00:01:40;6.47;;;3.53;;
59294;SDS011;45067;44.654;20.200;2022-08-01T00:04:06;8.57;;;6.15;;
59294;SDS011;45067;44.654;20.200;2022-08-01T00:06:32;9.30;;;5.10;;
59294;SDS011;45067;44.654;20.200;2022-08-01T00:09:02;9.45;;;4.60;;
59294;SDS011;45067;44.654;20.200;2022-08-01T00:11:28;7.10;;;4.45;;
59294;SDS011;45067;44.654;20.200;2022-08-01T00:13:54;9.85;;;4.55;;
59294;SDS011;45067;44.654;20.200;2022-08-01T00:16:20;8.55;;;3.95;;
59294;SDS011;45067;44.654;20.200;2022-08-01T00:24:55;6.63;;;4.10;;
59294;SDS011;45067;44.654;20.200;2022-08-01T00:27:22;7.25;;;4.25;;
59294;SDS011;45067;44.654;20.200;2022-08-01T00:29:48;6.00;;;4.88;;
59294;SDS011;45067;44.654;20.200;2022-08-01T00:32:14;7.45;;;4.80;;
59294;SDS011;45067;44.654;20.200;2022-08-01T00:37:43;5.35;;;3.92;;
59294;SDS011;45067;44.654;20.200;2022-08-01T00:40:09;6.85;;;3.75;;
59294;SDS011;45067;44.654;20.200;2022-08-01T00:42:36;7.03;;;3.95;;
59294;SDS011;45067;44.654;20.200;2022-08-01T00:45:06;5.75;;;3.95;;
59294;SDS011;45067;44.654;20.200;2022-08-01T00:47:36;5.18;;;4.05;;
59294;SDS011;45067;44.654;20.200;2022-08-01T00:53:05;7.00;;;4.40;;
59294;SDS011;45067;44.654;20.200;2022-08-01T00:55:32;10.93;;;3.85;;
59294;SDS011;45067;44.654;20.200;2022-08-01T00:57:58;5.68;;;4.05;;
59294;SDS011;45067;44.654;20.200;2022-08-01T01:00:24;6.45;;;4.00;;
59294;SDS011;45067;44.654;20.200;2022-08-01T01:02:51;6.65;;;3.78;;
59294;SDS011;45067;44.654;20.200;2022-08-01T01:08:24;8.60;;;4.32;;
59294;SDS011;45067;44.654;20.200;2022-08-01T01:10:56;8.90;;;3.97;;
59294;SDS011;45067;44.654;20.200;2022-08-01T01:15:59;7.07;;;3.60;;
59294;SDS011;45067;44.654;20.200;2022-08-01T01:18:36;10.68;;;4.30;;
59294;SDS011;45067;44.654;20.200;2022-08-01T01:24:17;6.20;;;3.60;;
59294;SDS011;45067;44.654;20.200;2022-08-01T01:26:52;5.43;;;3.92;;
59294;SDS011;45067;44.654;20.200;2022-08-01T01:29:21;6.93;;;4.47;;
59294;SDS011;45067;44.654;20.200;2022-08-01T01:31:49;6.60;;;4.05;;
59294;SDS011;45067;44.654;20.200;2022-08-01T01:34:37;7.35;;;4.60;;
59294;SDS011;45067;44.654;20.200;2022-08-01T01:37:04;6.55;;;4.25;;
59294;SDS011;45067;44.654;20.200;2022-08-01T01:39:32;6.72;;;4.55;;
59294;SDS011;45067;44.654;20.200;2022-08-01T01:42:02;6.20;;;4.67;;
59294;SDS011;45067;44.654;20.200;2022-08-01T01:44:30;9.60;;;4.90;;
59294;SDS011;45067;44.654;20.200;2022-08-01T01:46:56;7.22;;;4.90;;
59294;SDS011;45067;44.654;20.200;2022-08-01T01:49:24;7.70;;;5.18;;
59294;SDS011;45067;44.654;20.200;2022-08-01T01:51:51;8.10;;;5.13;;
59294;SDS011;45067;44.654;20.200;2022-08-01T01:54:19;10.27;;;5.03;;
59294;SDS011;45067;44.654;20.200;2022-08-01T01:56:45;8.40;;;5.38;;
59294;SDS011;45067;44.654;20.200;2022-08-01T01:59:16;9.40;;;5.03;;
59294;SDS011;45067;44.654;20.200;2022-08-01T02:01:44;8.85;;;5.15;;
59294;SDS011;45067;44.654;20.200;2022-08-01T02:04:12;9.27;;;4.93;;
59294;SDS011;45067;44.654;20.200;2022-08-01T02:06:39;8.07;;;4.95;;
59294;SDS011;45067;44.654;20.200;2022-08-01T02:09:06;7.57;;;5.05;;
59294;SDS011;45067;44.654;20.200;2022-08-01T02:11:33;8.73;;;5.18;;
59294;SDS011;45067;44.654;20.200;2022-08-01T02:14:01;8.25;;;4.97;;
59294;SDS011;45067;44.654;20.200;2022-08-01T02:16:31;10.95;;;5.32;;
59294;SDS011;45067;44.654;20.200;2022-08-01T02:18:59;8.38;;;4.82;;
59294;SDS011;45067;44.654;20.200;2022-08-01T02:26:59;11.55;;;6.15;;
59294;SDS011;45067;44.654;20.200;2022-08-01T02:29:33;8.70;;;5.75;;
59294;SDS011;45067;44.654;20.200;2022-08-01T02:32:00;9.40;;;5.28;;
59294;SDS011;45067;44.654;20.200;2022-08-01T02:34:28;8.45;;;5.50;;
59294;SDS011;45067;44.654;20.200;2022-08-01T02:36:57;13.52;;;6.70;;
59294;SDS011;45067;44.654;20.200;2022-08-01T02:39:24;14.30;;;7.97;;
59294;SDS011;45067;44.654;20.200;2022-08-01T02:41:53;12.13;;;7.78;;
59294;SDS011;45067;44.654;20.200;2022-08-01T02:44:23;8.65;;;5.90;;
59294;SDS011;45067;44.654;20.200;2022-08-01T02:46:53;9.73;;;6.30;;
59294;SDS011;45067;44.654;20.200;2022-08-01T02:49:20;10.98;;;6.50;;
59294;SDS011;45067;44.654;20.200;2022-08-01T02:51:47;14.55;;;6.65;;
59294;SDS011;45067;44.654;20.200;2022-08-01T02:54:14;8.13;;;6.00;;
59294;SDS011;45067;44.654;20.200;2022-08-01T02:56:41;10.20;;;5.63;;
59294;SDS011;45067;44.654;20.200;2022-08-01T02:59:09;11.30;;;5.40;;
59294;SDS011;45067;44.654;20.200;2022-08-01T03:01:36;19.15;;;6.55;;
59294;SDS011;45067;44.654;20.200;2022-08-01T03:04:03;10.93;;;5.38;;
59294;SDS011;45067;44.654;20.200;2022-08-01T03:09:35;10.75;;;5.47;;
59294;SDS011;45067;44.654;20.200;2022-08-01T03:12:02;9.18;;;5.85;;
59294;SDS011;45067;44.654;20.200;2022-08-01T03:14:29;5.95;;;5.03;;
59294;SDS011;45067;44.654;20.200;2022-08-01T03:16:56;9.38;;;5.50;;
59294;SDS011;45067;44.654;20.200;2022-08-01T03:19:24;11.38;;;5.90;;
59294;SDS011;45067;44.654;20.200;2022-08-01T03:21:50;11.02;;;5.93;;
59294;SDS011;45067;44.654;20.200;2022-08-01T03:24:17;10.70;;;7.20;;
59294;SDS011;45067;44.654;20.200;2022-08-01T03:26:44;10.77;;;6.10;;
59294;SDS011;45067;44.654;20.200;2022-08-01T03:29:12;8.38;;;6.00;;
59294;SDS011;45067;44.654;20.200;2022-08-01T03:31:39;9.95;;;6.32;;
59294;SDS011;45067;44.654;20.200;2022-08-01T03:34:08;9.93;;;6.97;;
59294;SDS011;45067;44.654;20.200;2022-08-01T03:39:44;8.73;;;6.57;;
59294;SDS011;45067;44.654;20.200;2022-08-01T03:42:18;9.68;;;7.00;;
59294;SDS011;45067;44.654;20.200;2022-08-01T03:44:56;10.23;;;6.97;;
59294;SDS011;45067;44.654;20.200;2022-08-01T03:47:24;14.00;;;7.13;;
59294;SDS011;45067;44.654;20.200;2022-08-01T03:49:51;12.98;;;7.35;;
59294;SDS011;45067;44.654;20.200;2022-08-01T03:52:18;13.38;;;7.18;;
59294;SDS011;45067;44.654;20.200;2022-08-01T03:54:46;9.95;;;6.80;;
59294;SDS011;45067;44.654;20.200;2022-08-01T03:57:13;10.02;;;8.05;;
59294;SDS011;45067;44.654;20.200;2022-08-01T03:59:39;10.95;;;7.60;;
59294;SDS011;45067;44.654;20.200;2022-08-01T04:02:07;11.93;;;7.97;;
59294;SDS011;45067;44.654;20.200;2022-08-01T04:04:33;15.93;;;7.78;;
59294;SDS011;45067;44.654;20.200;2022-08-01T04:06:59;14.77;;;8.93;;
59294;SDS011;45067;44.654;20.200;2022-08-01T04:09:31;12.93;;;9.32;;
59294;SDS011;45067;44.654;20.200;2022-08-01T04:12:00;17.52;;;10.32;;
59294;SDS011;45067;44.654;20.200;2022-08-01T04:14:27;12.50;;;8.55;;
59294;SDS011;45067;44.654;20.200;2022-08-01T04:16:53;11.52;;;7.25;;
59294;SDS011;45067;44.654;20.200;2022-08-01T04:19:19;12.55;;;7.70;;
59294;SDS011;45067;44.654;20.200;2022-08-01T04:24:50;14.70;;;10.60;;
59294;SDS011;45067;44.654;20.200;2022-08-01T04:27:23;12.60;;;8.55;;
59294;SDS011;45067;44.654;20.200;2022-08-01T04:29:50;14.20;;;8.45;;
59294;SDS011;45067;44.654;20.200;2022-08-01T04:32:17;13.35;;;7.80;;
59294;SDS011;45067;44.654;20.200;2022-08-01T04:34:44;12.57;;;7.72;;
59294;SDS011;45067;44.654;20.200;2022-08-01T04:37:11;12.77;;;8.02;;
59294;SDS011;45067;44.654;20.200;2022-08-01T04:39:38;11.05;;;7.93;;
59294;SDS011;45067;44.654;20.200;2022-08-01T04:42:07;13.93;;;7.25;;
59294;SDS011;45067;44.654;20.200;2022-08-01T04:44:33;10.50;;;7.57;;
59294;SDS011;45067;44.654;20.200;2022-08-01T04:47:00;12.23;;;7.25;;
59294;SDS011;45067;44.654;20.200;2022-08-01T04:49:29;11.30;;;7.65;;
59294;SDS011;45067;44.654;20.200;2022-08-01T04:55:19;11.05;;;7.47;;
59294;SDS011;45067;44.654;20.200;2022-08-01T04:57:46;12.45;;;7.80;;
59294;SDS011;45067;44.654;20.200;2022-08-01T05:00:13;13.60;;;8.55;;
59294;SDS011;45067;44.654;20.200;2022-08-01T05:02:41;15.52;;;8.05;;
59294;SDS011;45067;44.654;20.200;2022-08-01T05:05:07;13.75;;;8.23;;
59294;SDS011;45067;44.654;20.200;2022-08-01T05:07:35;12.45;;;8.15;;
59294;SDS011;45067;44.654;20.200;2022-08-01T05:10:05;11.05;;;7.75;;
59294;SDS011;45067;44.654;20.200;2022-08-01T05:12:31;13.10;;;8.30;;
59294;SDS011;45067;44.654;20.200;2022-08-01T05:14:58;12.82;;;9.73;;
59294;SDS011;45067;44.654;20.200;2022-08-01T05:17:24;11.02;;;8.30;;
59294;SDS011;45067;44.654;20.200;2022-08-01T05:19:50;11.07;;;7.72;;
59294;SDS011;45067;44.654;20.200;2022-08-01T05:22:16;11.75;;;8.60;;
59294;SDS011;45067;44.654;20.200;2022-08-01T05:24:42;13.60;;;8.35;;
59294;SDS011;45067;44.654;20.200;2022-08-01T05:27:08;12.85;;;7.97;;
59294;SDS011;45067;44.654;20.200;2022-08-01T05:29:34;14.45;;;7.95;;
59294;SDS011;45067;44.654;20.200;2022-08-01T05:32:01;12.75;;;8.50;;
59294;SDS011;45067;44.654;20.200;2022-08-01T05:34:27;8.77;;;7.55;;
59294;SDS011;45067;44.654;20.200;2022-08-01T05:39:56;13.65;;;8.35;;
59294;SDS011;45067;44.654;20.200;2022-08-01T05:42:23;10.95;;;8.23;;
59294;SDS011;45067;44.654;20.200;2022-08-01T05:44:49;13.93;;;7.65;;
59294;SDS011;45067;44.654;20.200;2022-08-01T05:47:16;11.80;;;8.07;;
59294;SDS011;45067;44.654;20.200;2022-08-01T05:49:42;15.68;;;8.23;;
59294;SDS011;45067;44.654;20.200;2022-08-01T05:52:08;14.30;;;9.48;;
59294;SDS011;45067;44.654;20.200;2022-08-01T05:54:35;12.07;;;8.23;;
59294;SDS011;45067;44.654;20.200;2022-08-01T05:57:01;13.55;;;7.75;;
59294;SDS011;45067;44.654;20.200;2022-08-01T05:59:28;11.63;;;8.57;;
59294;SDS011;45067;44.654;20.200;2022-08-01T06:01:54;10.85;;;8.07;;
59294;SDS011;45067;44.654;20.200;2022-08-01T06:04:20;12.40;;;8.13;;
59294;SDS011;45067;44.654;20.200;2022-08-01T06:09:49;10.93;;;7.60;;
59294;SDS011;45067;44.654;20.200;2022-08-01T06:12:15;9.82;;;7.80;;
59294;SDS011;45067;44.654;20.200;2022-08-01T06:14:42;14.65;;;7.85;;
59294;SDS011;45067;44.654;20.200;2022-08-01T06:17:08;9.40;;;8.02;;
59294;SDS011;45067;44.654;20.200;2022-08-01T06:19:34;10.45;;;6.95;;
59294;SDS011;45067;44.654;20.200;2022-08-01T06:25:03;9.68;;;7.40;;
59294;SDS011;45067;44.654;20.200;2022-08-01T06:27:29;8.20;;;6.93;;
59294;SDS011;45067;44.654;20.200;2022-08-01T06:29:55;8.63;;;6.78;;
59294;SDS011;45067;44.654;20.200;2022-08-01T06:32:22;8.32;;;6.55;;
59294;SDS011;45067;44.654;20.200;2022-08-01T06:34:49;10.48;;;6.57;;
59294;SDS011;45067;44.654;20.200;2022-08-01T06:37:15;9.85;;;6.22;;
59294;SDS011;45067;44.654;20.200;2022-08-01T06:39:41;10.07;;;6.65;;
59294;SDS011;45067;44.654;20.200;2022-08-01T06:42:07;8.48;;;6.05;;
59294;SDS011;45067;44.654;20.200;2022-08-01T06:44:34;9.50;;;5.57;;
59294;SDS011;45067;44.654;20.200;2022-08-01T06:47:00;8.80;;;6.25;;
59294;SDS011;45067;44.654;20.200;2022-08-01T06:49:27;9.63;;;6.28;;
59294;SDS011;45067;44.654;20.200;2022-08-01T06:54:56;10.35;;;7.32;;
59294;SDS011;45067;44.654;20.200;2022-08-01T06:57:22;10.40;;;7.20;;
59294;SDS011;45067;44.654;20.200;2022-08-01T06:59:48;7.72;;;6.00;;
59294;SDS011;45067;44.654;20.200;2022-08-01T07:02:14;8.55;;;6.13;;
59294;SDS011;45067;44.654;20.200;2022-08-01T07:04:41;7.97;;;6.00;;
59294;SDS011;45067;44.654;20.200;2022-08-01T07:10:10;7.90;;;5.75;;
59294;SDS011;45067;44.654;20.200;2022-08-01T07:12:36;9.55;;;5.65;;
59294;SDS011;45067;44.654;20.200;2022-08-01T07:15:06;10.30;;;6.30;;
59294;SDS011;45067;44.654;20.200;2022-08-01T07:17:36;10.70;;;5.60;;
59294;SDS011;45067;44.654;20.200;2022-08-01T07:20:02;6.43;;;4.93;;
59294;SDS011;45067;44.654;20.200;2022-08-01T07:22:29;8.43;;;5.28;;
59294;SDS011;45067;44.654;20.200;2022-08-01T07:24:55;6.70;;;4.70;;
59294;SDS011;45067;44.654;20.200;2022-08-01T07:27:21;10.55;;;5.93;;
59294;SDS011;45067;44.654;20.200;2022-08-01T07:29:47;9.95;;;5.20;;
59294;SDS011;45067;44.654;20.200;2022-08-01T07:32:13;9.15;;;4.90;;
59294;SDS011;45067;44.654;20.200;2022-08-01T07:34:39;9.10;;;5.03;;
59294;SDS011;45067;44.654;20.200;2022-08-01T07:40:09;9.98;;;4.63;;
59294;SDS011;45067;44.654;20.200;2022-08-01T07:42:35;9.00;;;4.88;;
59294;SDS011;45067;44.654;20.200;2022-08-01T07:45:02;10.90;;;4.97;;
59294;SDS011;45067;44.654;20.200;2022-08-01T07:47:28;10.18;;;5.20;;
59294;SDS011;45067;44.654;20.200;2022-08-01T07:56:02;7.78;;;5.05;;
59294;SDS011;45067;44.654;20.200;2022-08-01T07:58:31;8.65;;;4.78;;
59294;SDS011;45067;44.654;20.200;2022-08-01T08:00:57;12.48;;;4.70;;
59294;SDS011;45067;44.654;20.200;2022-08-01T08:03:23;11.63;;;4.88;;
59294;SDS011;45067;44.654;20.200;2022-08-01T08:05:49;10.50;;;4.93;;
59294;SDS011;45067;44.654;20.200;2022-08-01T08:08:15;10.98;;;5.10;;
59294;SDS011;45067;44.654;20.200;2022-08-01T08:10:43;14.45;;;5.55;;
59294;SDS011;45067;44.654;20.200;2022-08-01T08:13:09;18.27;;;6.72;;
59294;SDS011;45067;44.654;20.200;2022-08-01T08:15:35;8.30;;;4.93;;
59294;SDS011;45067;44.654;20.200;2022-08-01T08:18:02;9.38;;;5.20;;
59294;SDS011;45067;44.654;20.200;2022-08-01T08:20:28;11.45;;;4.13;;
59294;SDS011;45067;44.654;20.200;2022-08-01T08:22:55;8.52;;;4.20;;
59294;SDS011;45067;44.654;20.200;2022-08-01T08:25:23;6.10;;;4.40;;
59294;SDS011;45067;44.654;20.200;2022-08-01T08:27:50;7.80;;;4.13;;
59294;SDS011;45067;44.654;20.200;2022-08-01T08:30:16;6.78;;;4.32;;
59294;SDS011;45067;44.654;20.200;2022-08-01T08:32:43;13.32;;;4.47;;
59294;SDS011;45067;44.654;20.200;2022-08-01T08:35:09;9.43;;;4.80;;
59294;SDS011;45067;44.654;20.200;2022-08-01T08:37:36;7.97;;;4.20;;
59294;SDS011;45067;44.654;20.200;2022-08-01T08:40:05;7.47;;;4.20;;
59294;SDS011;45067;44.654;20.200;2022-08-01T08:42:31;14.25;;;5.18;;
59294;SDS011;45067;44.654;20.200;2022-08-01T08:44:58;13.57;;;5.10;;
59294;SDS011;45067;44.654;20.200;2022-08-01T08:47:24;7.28;;;4.57;;
59294;SDS011;45067;44.654;20.200;2022-08-01T08:49:52;7.90;;;4.43;;
59294;SDS011;45067;44.654;20.200;2022-08-01T08:55:23;11.48;;;5.55;;
59294;SDS011;45067;44.654;20.200;2022-08-01T08:57:50;13.25;;;5.20;;
59294;SDS011;45067;44.654;20.200;2022-08-01T09:00:18;8.65;;;4.47;;
59294;SDS011;45067;44.654;20.200;2022-08-01T09:02:47;5.15;;;3.80;;
59294;SDS011;45067;44.654;20.200;2022-08-01T09:05:14;8.07;;;4.47;;
59294;SDS011;45067;44.654;20.200;2022-08-01T09:07:41;9.57;;;4.45;;
59294;SDS011;45067;44.654;20.200;2022-08-01T09:10:08;5.30;;;3.67;;
59294;SDS011;45067;44.654;20.200;2022-08-01T09:12:34;7.63;;;4.68;;
59294;SDS011;45067;44.654;20.200;2022-08-01T09:15:00;11.05;;;4.10;;
59294;SDS011;45067;44.654;20.200;2022-08-01T09:17:26;9.93;;;4.15;;
59294;SDS011;45067;44.654;20.200;2022-08-01T09:19:54;8.40;;;4.65;;
59294;SDS011;45067;44.654;20.200;2022-08-01T09:25:24;5.07;;;3.72;;
59294;SDS011;45067;44.654;20.200;2022-08-01T09:28:04;9.13;;;4.32;;
59294;SDS011;45067;44.654;20.200;2022-08-01T09:30:37;8.82;;;3.90;;
59294;SDS011;45067;44.654;20.200;2022-08-01T09:33:04;5.55;;;3.80;;
59294;SDS011;45067;44.654;20.200;2022-08-01T09:35:31;6.45;;;3.80;;
59294;SDS011;45067;44.654;20.200;2022-08-01T09:38:15;5.40;;;3.42;;
59294;SDS011;45067;44.654;20.200;2022-08-01T09:40:45;6.40;;;4.05;;
59294;SDS011;45067;44.654;20.200;2022-08-01T09:43:12;5.28;;;3.72;;
59294;SDS011;45067;44.654;20.200;2022-08-01T09:45:38;7.30;;;3.63;;
59294;SDS011;45067;44.654;20.200;2022-08-01T09:48:08;5.57;;;3.70;;
59294;SDS011;45067;44.654;20.200;2022-08-01T09:53:00;7.30;;;3.97;;
59294;SDS011;45067;44.654;20.200;2022-08-01T09:55:26;6.38;;;3.80;;
59294;SDS011;45067;44.654;20.200;2022-08-01T09:57:55;10.20;;;3.85;;
59294;SDS011;45067;44.654;20.200;2022-08-01T10:00:25;5.63;;;3.60;;
59294;SDS011;45067;44.654;20.200;2022-08-01T10:02:51;5.18;;;3.75;;
59294;SDS011;45067;44.654;20.200;2022-08-01T10:11:25;6.68;;;4.20;;
59294;SDS011;45067;44.654;20.200;2022-08-01T10:13:51;5.95;;;3.70;;
59294;SDS011;45067;44.654;20.200;2022-08-01T10:16:18;7.00;;;4.60;;
59294;SDS011;45067;44.654;20.200;2022-08-01T10:18:44;7.72;;;4.25;;
59294;SDS011;45067;44.654;20.200;2022-08-01T10:21:11;6.30;;;3.85;;
59294;SDS011;45067;44.654;20.200;2022-08-01T10:23:38;5.57;;;3.95;;
59294;SDS011;45067;44.654;20.200;2022-08-01T10:26:05;5.97;;;3.55;;
59294;SDS011;45067;44.654;20.200;2022-08-01T10:28:31;6.47;;;3.58;;
59294;SDS011;45067;44.654;20.200;2022-08-01T10:31:00;5.60;;;3.97;;
59294;SDS011;45067;44.654;20.200;2022-08-01T10:33:27;7.28;;;3.53;;
59294;SDS011;45067;44.654;20.200;2022-08-01T10:35:54;5.10;;;4.10;;
59294;SDS011;45067;44.654;20.200;2022-08-01T10:38:20;5.35;;;3.92;;
59294;SDS011;45067;44.654;20.200;2022-08-01T10:40:48;6.80;;;4.20;;
59294;SDS011;45067;44.654;20.200;2022-08-01T10:43:16;4.30;;;3.65;;
59294;SDS011;45067;44.654;20.200;2022-08-01T10:45:42;9.13;;;4.10;;
59294;SDS011;45067;44.654;20.200;2022-08-01T10:48:11;4.13;;;3.63;;
59294;SDS011;45067;44.654;20.200;2022-08-01T10:50:40;8.40;;;6.80;;
59294;SDS011;45067;44.654;20.200;2022-08-01T10:53:21;7.35;;;3.80;;
59294;SDS011;45067;44.654;20.200;2022-08-01T10:58:20;10.35;;;6.47;;
59294;SDS011;45067;44.654;20.200;2022-08-01T11:00:46;4.38;;;3.80;;
59294;SDS011;45067;44.654;20.200;2022-08-01T11:03:13;5.85;;;3.53;;
59294;SDS011;45067;44.654;20.200;2022-08-01T11:05:39;8.38;;;3.85;;
59294;SDS011;45067;44.654;20.200;2022-08-01T11:08:10;6.97;;;3.88;;
59294;SDS011;45067;44.654;20.200;2022-08-01T11:10:37;7.75;;;4.00;;
59294;SDS011;45067;44.654;20.200;2022-08-01T11:13:03;5.65;;;3.70;;
59294;SDS011;45067;44.654;20.200;2022-08-01T11:15:33;5.90;;;3.97;;
59294;SDS011;45067;44.654;20.200;2022-08-01T11:18:03;5.75;;;3.80;;
59294;SDS011;45067;44.654;20.200;2022-08-01T11:20:35;4.13;;;3.60;;
59294;SDS011;45067;44.654;20.200;2022-08-01T11:30:54;5.88;;;3.95;;
59294;SDS011;45067;44.654;20.200;2022-08-01T11:38:36;5.38;;;3.47;;
59294;SDS011;45067;44.654;20.200;2022-08-01T11:41:13;4.18;;;3.28;;
59294;SDS011;45067;44.654;20.200;2022-08-01T11:51:57;7.00;;;3.40;;
59294;SDS011;45067;44.654;20.200;2022-08-01T11:54:27;5.72;;;3.58;;
59294;SDS011;45067;44.654;20.200;2022-08-01T11:56:57;6.43;;;3.47;;
59294;SDS011;45067;44.654;20.200;2022-08-01T11:59:24;6.22;;;4.70;;
59294;SDS011;45067;44.654;20.200;2022-08-01T12:01:50;6.82;;;3.97;;
59294;SDS011;45067;44.654;20.200;2022-08-01T12:04:16;5.90;;;4.22;;
59294;SDS011;45067;44.654;20.200;2022-08-01T12:06:42;7.43;;;4.30;;
59294;SDS011;45067;44.654;20.200;2022-08-01T12:09:15;6.32;;;4.10;;
59294;SDS011;45067;44.654;20.200;2022-08-01T12:11:41;7.57;;;3.30;;
59294;SDS011;45067;44.654;20.200;2022-08-01T12:14:07;6.22;;;3.70;;
59294;SDS011;45067;44.654;20.200;2022-08-01T12:16:34;8.32;;;4.82;;
59294;SDS011;45067;44.654;20.200;2022-08-01T12:19:00;4.53;;;3.30;;
59294;SDS011;45067;44.654;20.200;2022-08-01T12:21:26;5.68;;;3.42;;
59294;SDS011;45067;44.654;20.200;2022-08-01T12:24:02;5.35;;;3.05;;
59294;SDS011;45067;44.654;20.200;2022-08-01T12:26:41;7.30;;;3.53;;
59294;SDS011;45067;44.654;20.200;2022-08-01T12:29:07;7.90;;;4.70;;
59294;SDS011;45067;44.654;20.200;2022-08-01T12:31:33;5.75;;;4.00;;
59294;SDS011;45067;44.654;20.200;2022-08-01T12:34:24;9.88;;;6.00;;
59294;SDS011;45067;44.654;20.200;2022-08-01T12:36:46;6.90;;;4.57;;
59294;SDS011;45067;44.654;20.200;2022-08-01T12:39:12;4.22;;;3.55;;
59294;SDS011;45067;44.654;20.200;2022-08-01T12:41:38;3.75;;;3.20;;
59294;SDS011;45067;44.654;20.200;2022-08-01T12:44:12;5.82;;;3.20;;
59294;SDS011;45067;44.654;20.200;2022-08-01T12:46:39;7.07;;;4.90;;
59294;SDS011;45067;44.654;20.200;2022-08-01T12:49:06;4.65;;;3.90;;
59294;SDS011;45067;44.654;20.200;2022-08-01T12:51:32;9.80;;;7.85;;
59294;SDS011;45067;44.654;20.200;2022-08-01T12:53:58;5.68;;;4.85;;
59294;SDS011;45067;44.654;20.200;2022-08-01T12:56:34;6.22;;;3.90;;
59294;SDS011;45067;44.654;20.200;2022-08-01T12:59:00;5.63;;;4.20;;
59294;SDS011;45067;44.654;20.200;2022-08-01T13:01:27;5.13;;;3.53;;
59294;SDS011;45067;44.654;20.200;2022-08-01T13:03:57;7.00;;;3.40;;
59294;SDS011;45067;44.654;20.200;2022-08-01T13:06:23;4.75;;;3.50;;
59294;SDS011;45067;44.654;20.200;2022-08-01T13:08:53;7.68;;;4.40;;
59294;SDS011;45067;44.654;20.200;2022-08-01T13:11:19;5.25;;;3.90;;
59294;SDS011;45067;44.654;20.200;2022-08-01T13:13:50;4.53;;;3.35;;
59294;SDS011;45067;44.654;20.200;2022-08-01T13:16:18;4.82;;;3.03;;
59294;SDS011;45067;44.654;20.200;2022-08-01T13:18:47;7.72;;;3.83;;
59294;SDS011;45067;44.654;20.200;2022-08-01T13:21:21;7.88;;;3.53;;
59294;SDS011;45067;44.654;20.200;2022-08-01T13:24:01;4.32;;;3.22;;
59294;SDS011;45067;44.654;20.200;2022-08-01T13:26:37;4.68;;;3.17;;
59294;SDS011;45067;44.654;20.200;2022-08-01T13:29:06;4.03;;;3.17;;
59294;SDS011;45067;44.654;20.200;2022-08-01T13:31:33;6.50;;;3.10;;
59294;SDS011;45067;44.654;20.200;2022-08-01T13:33:59;6.43;;;3.75;;
59294;SDS011;45067;44.654;20.200;2022-08-01T13:36:25;5.55;;;3.40;;
59294;SDS011;45067;44.654;20.200;2022-08-01T13:38:53;5.38;;;3.10;;
59294;SDS011;45067;44.654;20.200;2022-08-01T13:41:38;4.82;;;3.53;;
59294;SDS011;45067;44.654;20.200;2022-08-01T13:44:04;5.05;;;3.20;;
59294;SDS011;45067;44.654;20.200;2022-08-01T13:46:31;6.20;;;3.20;;
59294;SDS011;45067;44.654;20.200;2022-08-01T13:48:57;4.50;;;2.97;;
59294;SDS011;45067;44.654;20.200;2022-08-01T13:51:23;4.38;;;2.80;;
59294;SDS011;45067;44.654;20.200;2022-08-01T13:53:49;5.50;;;3.40;;
59294;SDS011;45067;44.654;20.200;2022-08-01T13:56:15;4.45;;;3.30;;
59294;SDS011;45067;44.654;20.200;2022-08-01T13:58:42;4.35;;;3.30;;
59294;SDS011;45067;44.654;20.200;2022-08-01T14:01:08;4.60;;;3.30;;
59294;SDS011;45067;44.654;20.200;2022-08-01T14:03:35;5.72;;;4.13;;
59294;SDS011;45067;44.654;20.200;2022-08-01T14:06:01;7.43;;;3.35;;
59294;SDS011;45067;44.654;20.200;2022-08-01T14:08:30;4.90;;;3.17;;
59294;SDS011;45067;44.654;20.200;2022-08-01T14:10:57;5.43;;;3.47;;
59294;SDS011;45067;44.654;20.200;2022-08-01T14:13:27;3.65;;;3.10;;
59294;SDS011;45067;44.654;20.200;2022-08-01T14:15:53;5.80;;;3.03;;
59294;SDS011;45067;44.654;20.200;2022-08-01T14:18:19;4.75;;;3.42;;
59294;SDS011;45067;44.654;20.200;2022-08-01T14:20:46;5.65;;;3.20;;
59294;SDS011;45067;44.654;20.200;2022-08-01T14:26:15;4.63;;;4.05;;
59294;SDS011;45067;44.654;20.200;2022-08-01T14:28:41;13.25;;;9.05;;
59294;SDS011;45067;44.654;20.200;2022-08-01T14:31:07;12.65;;;8.68;;
59294;SDS011;45067;44.654;20.200;2022-08-01T14:33:40;13.35;;;10.50;;
59294;SDS011;45067;44.654;20.200;2022-08-01T14:36:06;6.95;;;3.70;;
59294;SDS011;45067;44.654;20.200;2022-08-01T14:38:35;7.35;;;4.10;;
59294;SDS011;45067;44.654;20.200;2022-08-01T14:41:01;11.32;;;5.65;;
59294;SDS011;45067;44.654;20.200;2022-08-01T14:43:28;6.07;;;3.55;;
59294;SDS011;45067;44.654;20.200;2022-08-01T14:45:56;4.78;;;3.33;;
59294;SDS011;45067;44.654;20.200;2022-08-01T14:48:22;4.38;;;3.58;;
59294;SDS011;45067;44.654;20.200;2022-08-01T14:50:49;5.28;;;3.40;;
59294;SDS011;45067;44.654;20.200;2022-08-01T14:58:15;7.55;;;4.22;;
59294;SDS011;45067;44.654;20.200;2022-08-01T15:00:51;6.55;;;3.50;;
59294;SDS011;45067;44.654;20.200;2022-08-01T15:03:20;5.88;;;3.25;;
59294;SDS011;45067;44.654;20.200;2022-08-01T15:05:47;6.38;;;3.90;;
59294;SDS011;45067;44.654;20.200;2022-08-01T15:08:13;5.78;;;4.30;;
59294;SDS011;45067;44.654;20.200;2022-08-01T15:10:41;6.25;;;3.80;;
59294;SDS011;45067;44.654;20.200;2022-08-01T15:13:07;5.13;;;3.47;;
59294;SDS011;45067;44.654;20.200;2022-08-01T15:15:34;6.85;;;3.03;;
59294;SDS011;45067;44.654;20.200;2022-08-01T15:18:01;7.50;;;3.40;;
59294;SDS011;45067;44.654;20.200;2022-08-01T15:20:27;6.75;;;3.97;;
59294;SDS011;45067;44.654;20.200;2022-08-01T15:22:57;7.25;;;3.47;;
59294;SDS011;45067;44.654;20.200;2022-08-01T15:25:23;6.43;;;3.60;;
59294;SDS011;45067;44.654;20.200;2022-08-01T15:27:49;7.43;;;4.00;;
59294;SDS011;45067;44.654;20.200;2022-08-01T15:30:16;6.30;;;3.70;;
59294;SDS011;45067;44.654;20.200;2022-08-01T15:32:42;10.10;;;4.50;;
59294;SDS011;45067;44.654;20.200;2022-08-01T15:35:08;8.68;;;4.00;;
59294;SDS011;45067;44.654;20.200;2022-08-01T15:37:39;6.27;;;4.00;;
59294;SDS011;45067;44.654;20.200;2022-08-01T15:40:05;7.82;;;3.88;;
59294;SDS011;45067;44.654;20.200;2022-08-01T15:42:32;6.15;;;3.53;;
59294;SDS011;45067;44.654;20.200;2022-08-01T15:44:58;7.63;;;3.78;;
59294;SDS011;45067;44.654;20.200;2022-08-01T15:47:24;5.95;;;3.92;;
59294;SDS011;45067;44.654;20.200;2022-08-01T15:49:50;6.30;;;3.25;;
59294;SDS011;45067;44.654;20.200;2022-08-01T15:52:17;8.05;;;3.88;;
59294;SDS011;45067;44.654;20.200;2022-08-01T15:54:46;6.28;;;3.60;;
59294;SDS011;45067;44.654;20.200;2022-08-01T15:57:12;6.15;;;3.58;;
59294;SDS011;45067;44.654;20.200;2022-08-01T15:59:41;7.97;;;3.85;;
59294;SDS011;45067;44.654;20.200;2022-08-01T16:02:07;7.35;;;3.33;;
59294;SDS011;45067;44.654;20.200;2022-08-01T16:04:34;5.63;;;3.55;;
59294;SDS011;45067;44.654;20.200;2022-08-01T16:07:00;10.50;;;3.80;;
59294;SDS011;45067;44.654;20.200;2022-08-01T16:09:26;7.07;;;3.25;;
59294;SDS011;45067;44.654;20.200;2022-08-01T16:11:52;10.75;;;3.88;;
59294;SDS011;45067;44.654;20.200;2022-08-01T16:14:18;6.45;;;3.63;;
59294;SDS011;45067;44.654;20.200;2022-08-01T16:16:45;5.15;;;3.15;;
59294;SDS011;45067;44.654;20.200;2022-08-01T16:19:11;5.82;;;3.35;;
59294;SDS011;45067;44.654;20.200;2022-08-01T16:21:38;10.98;;;4.10;;
59294;SDS011;45067;44.654;20.200;2022-08-01T16:24:04;7.95;;;3.83;;